createdAt,value
2018-04-30T00:00:25.877Z,58.10
2018-04-30T00:05:34.066Z,58.33
2018-04-30T00:10:35.325Z,58.31
2018-04-30T00:15:36.720Z,58.05
2018-04-30T00:20:38.034Z,57.84
2018-04-30T00:25:39.333Z,57.97
2018-04-30T00:30:40.626Z,57.43
2018-04-30T00:35:41.962Z,57.15
2018-04-30T00:40:43.295Z,57.25
2018-04-30T00:45:44.618Z,57.19
2018-04-30T00:50:46.701Z,57.03
2018-04-30T00:55:48.014Z,56.94
2018-04-30T01:00:50.094Z,57.31
2018-04-30T01:05:51.401Z,57.32
2018-04-30T01:10:53.461Z,57.29
2018-04-30T01:15:54.805Z,60.00
2018-04-30T01:20:56.885Z,60.37
2018-04-30T01:25:58.177Z,63.24
2018-04-30T01:30:59.505Z,64.11
2018-04-30T01:36:00.805Z,63.90
2018-04-30T01:41:02.148Z,64.23
2018-04-30T01:46:03.462Z,67.50
2018-04-30T01:51:05.501Z,68.04
2018-04-30T01:56:06.827Z,67.22
2018-04-30T02:01:08.183Z,66.41
2018-04-30T02:06:09.502Z,65.65
2018-04-30T02:11:10.854Z,64.18
2018-04-30T02:16:12.217Z,63.87
2018-04-30T02:21:14.306Z,63.83
2018-04-30T02:26:16.358Z,63.23
2018-04-30T02:31:17.685Z,63.18
2018-04-30T02:36:19.018Z,63.00
2018-04-30T02:41:20.360Z,63.28
2018-04-30T02:46:21.673Z,63.20
2018-04-30T02:51:23.722Z,63.99
2018-04-30T02:56:25.084Z,63.63
2018-04-30T03:01:27.170Z,64.26
2018-04-30T03:06:28.497Z,64.07
2018-04-30T03:11:29.834Z,63.77
2018-04-30T03:16:31.181Z,63.39
2018-04-30T03:21:32.477Z,62.32
2018-04-30T03:26:33.810Z,62.34
2018-04-30T03:31:35.109Z,63.78
2018-04-30T03:36:37.166Z,63.50
2018-04-30T03:41:38.510Z,63.81
2018-04-30T03:46:40.550Z,63.31
2018-04-30T03:51:41.858Z,63.67
2018-04-30T03:56:43.165Z,63.38
2018-04-30T04:02:02.977Z,64.64
2018-04-30T04:07:04.355Z,64.60
2018-04-30T04:12:05.649Z,65.17
2018-04-30T04:17:06.965Z,64.74
2018-04-30T04:22:08.278Z,65.23
2018-04-30T04:27:10.329Z,64.86
2018-04-30T04:32:11.651Z,65.35
2018-04-30T04:37:12.969Z,64.89
2018-04-30T04:42:15.033Z,64.82
2018-04-30T04:47:16.346Z,64.75
2018-04-30T04:52:17.663Z,64.12
2018-04-30T04:57:18.969Z,63.62
2018-04-30T05:02:20.332Z,63.56
2018-04-30T05:07:21.609Z,63.24
2018-04-30T05:12:23.662Z,63.31
2018-04-30T05:17:25.006Z,63.11
2018-04-30T05:22:27.284Z,62.89
2018-04-30T05:27:29.628Z,62.87
2018-04-30T05:32:31.684Z,62.43
2018-04-30T05:37:33.001Z,61.97
2018-04-30T05:42:34.313Z,60.42
2018-04-30T05:47:36.345Z,59.30
2018-04-30T05:52:37.663Z,59.29
2018-04-30T05:57:38.987Z,60.07
2018-04-30T06:02:40.310Z,59.81
2018-04-30T06:07:41.629Z,59.82
2018-04-30T06:12:42.943Z,59.65
2018-04-30T06:17:44.258Z,58.67
2018-04-30T06:22:45.569Z,57.96
2018-04-30T06:27:46.882Z,57.66
2018-04-30T06:32:48.185Z,59.51
2018-04-30T06:37:49.723Z,61.67
2018-04-30T06:42:51.072Z,62.36
2018-04-30T06:47:52.486Z,63.73
2018-04-30T06:52:53.817Z,63.47
2018-04-30T06:57:55.156Z,63.74
2018-04-30T07:02:56.480Z,64.71
2018-04-30T07:07:58.510Z,63.78
2018-04-30T07:12:59.830Z,62.71
2018-04-30T07:18:01.153Z,62.25
2018-04-30T07:23:03.225Z,62.19
2018-04-30T07:28:04.545Z,63.38
2018-04-30T07:33:06.677Z,64.83
2018-04-30T07:38:07.961Z,65.80
2018-04-30T07:43:09.257Z,66.45
2018-04-30T07:48:10.611Z,66.51
2018-04-30T07:53:11.930Z,66.02
2018-04-30T07:58:13.290Z,65.78
2018-04-30T08:03:14.697Z,62.49
2018-04-30T08:08:16.009Z,60.73
2018-04-30T08:13:17.309Z,60.14
2018-04-30T08:18:18.639Z,59.81
2018-04-30T08:23:19.968Z,60.53
2018-04-30T08:28:21.291Z,62.19
2018-04-30T08:33:22.606Z,63.37
2018-04-30T08:38:23.925Z,62.77
2018-04-30T08:43:25.990Z,62.62
2018-04-30T08:48:27.321Z,63.02
2018-04-30T08:53:29.365Z,61.79
2018-04-30T08:58:30.723Z,61.32
2018-04-30T09:03:32.773Z,58.88
2018-04-30T09:08:34.067Z,58.30
2018-04-30T09:13:35.377Z,56.90
2018-04-30T09:18:36.766Z,57.04
2018-04-30T09:23:38.101Z,56.62
2018-04-30T09:28:39.407Z,59.30
2018-04-30T09:33:40.737Z,60.84
2018-04-30T09:38:42.065Z,59.88
2018-04-30T09:43:43.361Z,59.60
2018-04-30T09:48:44.686Z,59.38
2018-04-30T09:53:46.006Z,56.78
2018-04-30T09:58:48.086Z,55.51
2018-04-30T10:03:49.416Z,56.15
2018-04-30T10:08:51.496Z,56.43
2018-04-30T10:13:52.831Z,56.65
2018-04-30T10:18:54.150Z,58.73
2018-04-30T10:23:55.505Z,57.52
2018-04-30T10:28:56.835Z,56.61
2018-04-30T10:33:58.150Z,56.31
2018-04-30T10:38:59.481Z,54.28
2018-04-30T10:44:00.818Z,53.91
2018-04-30T10:49:02.147Z,54.08
2018-04-30T10:54:03.483Z,53.05
2018-04-30T10:59:04.830Z,53.41
2018-04-30T11:04:06.134Z,53.38
2018-04-30T11:09:07.446Z,51.73
2018-04-30T11:14:08.788Z,53.19
2018-04-30T11:19:10.102Z,55.96
2018-04-30T11:24:11.438Z,57.05
2018-04-30T11:29:12.803Z,57.57
2018-04-30T11:34:14.121Z,57.30
2018-04-30T11:39:17.201Z,57.38
2018-04-30T11:44:18.553Z,55.86
2018-04-30T11:49:19.902Z,54.12
2018-04-30T11:54:21.869Z,52.17
2018-04-30T11:59:23.219Z,50.09
2018-04-30T12:04:24.653Z,50.50
2018-04-30T12:09:26.018Z,49.40
2018-04-30T12:14:27.415Z,47.30
2018-04-30T12:19:29.466Z,44.83
2018-04-30T12:24:30.773Z,47.06
2018-04-30T12:29:32.183Z,45.65
2018-04-30T12:34:33.589Z,44.33
2018-04-30T12:39:35.650Z,44.05
2018-04-30T12:44:36.978Z,42.78
2018-04-30T12:49:39.226Z,43.16
2018-04-30T12:54:40.573Z,42.35
2018-04-30T12:59:41.917Z,41.92
2018-04-30T13:04:43.242Z,40.00
2018-04-30T13:09:44.568Z,39.89
2018-04-30T13:14:45.897Z,38.47
2018-04-30T13:19:47.260Z,38.73
2018-04-30T13:24:48.596Z,39.20
2018-04-30T13:29:49.943Z,38.46
2018-04-30T13:34:51.267Z,38.78
2018-04-30T13:39:53.207Z,38.00
2018-04-30T13:44:55.294Z,39.09
2018-04-30T13:49:56.634Z,38.58
2018-04-30T13:54:57.950Z,36.45
2018-04-30T13:59:59.283Z,37.17
2018-04-30T14:05:01.560Z,36.84
2018-04-30T14:10:02.903Z,37.15
2018-04-30T14:15:04.281Z,37.34
2018-04-30T14:20:06.320Z,36.67
2018-04-30T14:25:07.652Z,36.81
2018-04-30T14:30:11.721Z,35.70
2018-04-30T14:35:13.805Z,35.88
2018-04-30T14:40:15.233Z,36.14
2018-04-30T14:45:17.279Z,36.15
2018-04-30T14:50:18.654Z,36.31
2018-04-30T14:55:19.957Z,36.14
2018-04-30T15:00:21.276Z,35.57
2018-04-30T15:05:22.601Z,35.28
2018-04-30T15:10:24.659Z,35.58
2018-04-30T15:15:26.026Z,36.31
2018-04-30T15:20:27.359Z,37.57
2018-04-30T15:25:28.677Z,37.65
2018-04-30T15:30:30.705Z,36.51
2018-04-30T15:35:32.058Z,35.22
2018-04-30T15:40:34.113Z,35.79
2018-04-30T15:45:35.437Z,35.11
2018-04-30T15:50:36.741Z,35.69
2018-04-30T15:55:38.790Z,35.63
2018-04-30T16:00:40.138Z,35.79
2018-04-30T16:05:42.207Z,36.11
2018-04-30T16:10:43.518Z,34.47
2018-04-30T16:15:44.874Z,35.86
2018-04-30T16:20:46.214Z,36.21
2018-04-30T16:25:48.290Z,36.69
2018-04-30T16:30:49.621Z,37.55
2018-04-30T16:35:51.681Z,38.47
2018-04-30T16:40:53.022Z,38.74
2018-04-30T16:45:54.367Z,38.66
2018-04-30T16:50:55.727Z,38.97
2018-04-30T16:55:57.065Z,39.15
2018-04-30T17:00:58.413Z,39.43
2018-04-30T17:05:59.749Z,39.86
2018-04-30T17:11:01.854Z,39.96
2018-04-30T17:16:03.951Z,41.51
2018-04-30T17:21:05.286Z,41.58
2018-04-30T17:26:06.669Z,41.59
2018-04-30T17:31:09.671Z,43.73
2018-04-30T17:36:11.334Z,44.12
2018-04-30T17:41:12.668Z,45.12
2018-04-30T17:46:14.950Z,41.45
2018-04-30T17:51:16.375Z,39.94
2018-04-30T17:56:18.587Z,40.66
2018-04-30T18:01:19.969Z,41.66
2018-04-30T18:06:21.340Z,41.67
2018-04-30T18:11:23.492Z,41.76
2018-04-30T18:16:24.859Z,41.42
2018-04-30T18:21:26.252Z,42.10
2018-04-30T18:26:27.648Z,42.89
2018-04-30T18:31:28.946Z,42.95
2018-04-30T18:36:31.109Z,42.93
2018-04-30T18:41:32.409Z,43.63
2018-04-30T18:46:33.730Z,44.16
2018-04-30T18:51:35.801Z,43.21
2018-04-30T18:56:37.127Z,43.96
2018-04-30T19:01:39.213Z,44.86
2018-04-30T19:06:40.574Z,45.60
2018-04-30T19:11:41.930Z,45.75
2018-04-30T19:16:43.453Z,46.39
2018-04-30T19:21:44.809Z,46.66
2018-04-30T19:26:46.153Z,46.92
2018-04-30T19:31:47.476Z,47.57
2018-04-30T19:36:49.565Z,47.42
2018-04-30T19:41:50.890Z,47.80
2018-04-30T19:46:52.236Z,47.86
2018-04-30T19:51:53.570Z,48.06
2018-04-30T19:56:54.895Z,48.17
2018-04-30T20:01:56.374Z,48.35
2018-04-30T20:06:57.714Z,49.08
2018-04-30T20:11:59.200Z,48.60
2018-04-30T20:17:00.537Z,48.42
2018-04-30T20:22:01.895Z,47.70
2018-04-30T20:27:03.941Z,47.29
2018-04-30T20:32:05.294Z,47.46
2018-04-30T20:37:07.349Z,47.11
2018-04-30T20:42:08.662Z,47.08
2018-04-30T20:47:10.005Z,47.04
2018-04-30T20:52:11.321Z,47.44
2018-04-30T20:57:12.645Z,47.83
2018-04-30T21:02:13.981Z,47.62
2018-04-30T21:07:15.350Z,47.40
2018-04-30T21:12:17.614Z,47.70
2018-04-30T21:17:19.009Z,47.41
2018-04-30T21:22:20.293Z,47.01
2018-04-30T21:27:21.618Z,47.65
2018-04-30T21:32:23.683Z,47.15
2018-04-30T21:37:25.013Z,47.99
2018-04-30T21:42:27.062Z,48.10
2018-04-30T21:47:28.433Z,48.49
2018-04-30T21:52:30.457Z,48.14
2018-04-30T21:57:31.774Z,47.56
2018-04-30T22:02:33.142Z,47.86
2018-04-30T22:07:34.457Z,47.37
2018-04-30T22:12:35.810Z,47.34
2018-04-30T22:17:37.122Z,45.79
2018-04-30T22:22:38.439Z,44.79
2018-04-30T22:27:39.776Z,44.11
2018-04-30T22:32:41.091Z,44.50
2018-04-30T22:37:42.393Z,44.72
2018-04-30T22:42:43.712Z,44.27
2018-04-30T22:47:45.025Z,44.25
2018-04-30T22:52:46.325Z,43.40
2018-04-30T22:57:47.638Z,43.53
2018-04-30T23:02:49.765Z,43.44
2018-04-30T23:07:51.105Z,43.61
2018-04-30T23:12:52.449Z,43.92
2018-04-30T23:17:53.767Z,43.87
2018-04-30T23:22:55.110Z,43.81
2018-04-30T23:27:56.429Z,44.16
2018-04-30T23:32:58.515Z,44.64
2018-04-30T23:37:59.814Z,44.34
2018-04-30T23:43:01.134Z,43.85
2018-04-30T23:48:02.445Z,43.43
2018-04-30T23:53:03.775Z,43.04
2018-04-30T23:58:05.090Z,44.10
